Data for 11/13/2014

Time Sea-Level Adjusted Pressure Absolute Pressure Temperature Relative Humidity Dew Point   
(mb) (inHg) (mb) (inHg) (C) (F) (%) (C) (F)
00:05 1027 30.33 856 25.28 -20.4 -4.7 69 -24.7 -12.4
00:10 1027 30.33 856 25.28 -20.4 -4.8 70 -24.6 -12.3
00:15 1027 30.33 856 25.28 -20.3 -4.6 69 -24.6 -12.3
00:20 1027 30.33 856 25.28 -20.4 -4.6 69 -24.7 -12.4
00:25 1027 30.33 856 25.28 -20.2 -4.4 69 -24.5 -12.2
00:30 1027 30.33 856 25.28 -20.3 -4.5 70 -24.4 -11.9
00:35 1027 30.33 856 25.28 -20.3 -4.6 70 -24.5 -12
00:40 1027 30.33 856 25.28 -20.4 -4.6 70 -24.4 -12
00:45 1026 30.3 856 25.28 -20.4 -4.7 71 -24.4 -11.9
00:50 1026 30.3 856 25.28 -20.3 -4.6 70 -24.4 -11.9
00:55 1027 30.33 856 25.28 -20.3 -4.5 71 -24.3 -11.8
01:00 1027 30.33 856 25.28 -20.2 -4.3 70 -24.4 -11.9
01:05 1027 30.33 856 25.28 -20.1 -4.1 70 -24.3 -11.8
01:10 1027 30.33 856 25.28 -20.2 -4.3 70 -24.3 -11.7
01:15 1027 30.33 856 25.28 -20.5 -4.8 71 -24.4 -11.9
01:20 1027 30.33 856 25.28 -20.6 -5.1 72 -24.5 -12.1
01:25 1027 30.33 856 25.28 -20.7 -5.3 72 -24.6 -12.2
01:30 1027 30.33 856 25.28 -20.9 -5.6 73 -24.6 -12.3
01:35 1027 30.33 856 25.28 -21.1 -6 73 -24.7 -12.5
01:40 1026 30.3 856 25.28 -21.4 -6.6 75 -24.8 -12.6
01:45 1026 30.3 856 25.28 -21.1 -5.9 73 -24.7 -12.4
01:50 1026 30.3 856 25.28 -20.8 -5.5 72 -24.6 -12.2
01:55 1026 30.3 855 25.25 -20.8 -5.5 72 -24.6 -12.2
02:00 1026 30.3 855 25.25 -20.8 -5.4 72 -24.6 -12.4
02:05 1026 30.3 855 25.25 -20.8 -5.4 72 -24.6 -12.2
02:10 1026 30.3 855 25.25 -20.9 -5.7 72 -24.7 -12.4
02:15 1026 30.3 855 25.25 -21.1 -6 72 -24.9 -12.7
02:20 1026 30.3 855 25.25 -21.3 -6.4 73 -25 -13
02:25 1026 30.3 855 25.25 -21.4 -6.4 74 -24.9 -12.8
02:30 1026 30.3 855 25.25 -21.3 -6.3 73 -24.8 -12.7
02:35 1026 30.3 855 25.25 -21 -5.8 73 -24.7 -12.5
02:40 1026 30.3 855 25.25 -20.8 -5.4 72 -24.6 -12.4
02:45 1026 30.3 855 25.25 -21 -5.9 72 -24.8 -12.7
02:50 1026 30.3 855 25.25 -21.2 -6.2 73 -24.9 -12.8
02:55 1026 30.3 855 25.25 -21.3 -6.4 73 -24.9 -12.9
03:00 1026 30.3 855 25.25 -21.3 -6.4 73 -24.9 -12.9
03:05 1026 30.3 855 25.25 -21.3 -6.3 73 -24.9 -12.8
03:10 1026 30.3 855 25.25 -21.2 -6.2 73 -24.9 -12.8
03:15 1026 30.3 855 25.25 -21.2 -6.2 73 -24.9 -12.8
03:20 1025 30.27 855 25.25 -21.2 -6.2 73 -24.9 -12.8
03:25 1025 30.27 855 25.25 -21.2 -6.1 72 -24.9 -12.8
03:30 1025 30.27 855 25.25 -21.2 -6.1 72 -24.9 -12.8
03:35 1025 30.27 855 25.25 -21.2 -6.1 72 -24.9 -12.8
03:40 1025 30.27 855 25.25 -21.2 -6.1 72 -25 -13
03:45 1025 30.27 855 25.25 -21.2 -6.2 72 -25 -13
03:50 1025 30.27 854 25.22 -21.3 -6.3 73 -25 -12.9
03:55 1025 30.27 854 25.22 -21.4 -6.5 73 -25.1 -13.2
04:00 1025 30.27 854 25.22 -21.5 -6.6 73 -25.1 -13.2
04:05 1025 30.27 854 25.22 -21.5 -6.8 73 -25.2 -13.4
04:10 1025 30.27 854 25.22 -21.5 -6.7 73 -25.1 -13.1
04:15 1025 30.27 854 25.22 -21.3 -6.3 73 -25 -12.9
04:20 1025 30.27 854 25.22 -21.2 -6.1 73 -24.8 -12.7
04:25 1025 30.27 854 25.22 -21.2 -6.1 74 -24.7 -12.5
04:30 1025 30.27 854 25.22 -21 -5.7 72 -24.8 -12.7
04:35 1025 30.27 854 25.22 -20.9 -5.7 72 -24.8 -12.6
04:40 1025 30.27 854 25.22 -21.2 -6.1 72 -25 -13
04:45 1025 30.27 854 25.22 -21.3 -6.4 72 -25.1 -13.1
04:50 1025 30.27 854 25.22 -21.3 -6.4 72 -25.1 -13.2
04:55 1025 30.27 854 25.22 -21.4 -6.5 73 -25.1 -13.2
05:00 1024 30.24 854 25.22 -21.4 -6.5 73 -25.1 -13.1
05:05 1024 30.24 854 25.22 -21.3 -6.4 73 -24.9 -12.9
05:10 1024 30.24 854 25.22 -21.1 -6 73 -24.7 -12.5
05:15 1024 30.24 854 25.22 -21.1 -5.9 73 -24.7 -12.5
05:20 1024 30.24 854 25.22 -21.2 -6.2 72 -25 -13
05:25 1024 30.24 853 25.19 -21.8 -7.2 74 -25.3 -13.5
05:30 1024 30.24 853 25.19 -22.2 -7.9 78 -25.1 -13.1
05:35 1024 30.24 853 25.19 -21.9 -7.3 76 -25 -13
05:40 1024 30.24 853 25.19 -21.8 -7.3 78 -24.7 -12.5
05:45 1024 30.24 853 25.19 -21.8 -7.2 75 -25.1 -13.2
05:50 1024 30.24 853 25.19 -21.6 -6.8 74 -25.1 -13.1
05:55 1024 30.24 853 25.19 -21.2 -6.2 73 -25 -12.9
06:00 1024 30.24 853 25.19 -21.3 -6.3 73 -25 -13
06:05 1024 30.24 853 25.19 -21.6 -6.8 74 -25.1 -13.1
06:10 1024 30.24 853 25.19 -21.4 -6.6 72 -25.2 -13.3
06:15 1024 30.24 853 25.19 -21.7 -7 73 -25.3 -13.6
06:20 1023 30.21 853 25.19 -21.7 -7.1 74 -25.3 -13.5
06:25 1023 30.21 853 25.19 -21.7 -7 73 -25.2 -13.4
06:30 1023 30.21 853 25.19 -21.6 -6.9 74 -25.1 -13.3
06:35 1023 30.21 853 25.19 -21.7 -7.1 74 -25.2 -13.4
06:40 1023 30.21 852 25.16 -21.8 -7.3 74 -25.3 -13.5
06:45 1023 30.21 852 25.16 -22 -7.5 75 -25.3 -13.6
06:50 1023 30.21 852 25.16 -22 -7.7 76 -25.3 -13.5
06:55 1023 30.21 852 25.16 -21.9 -7.5 76 -25.1 -13.1
07:00 1023 30.21 852 25.16 -21.8 -7.2 76 -24.9 -12.9
07:05 1023 30.21 852 25.16 -21.7 -7.1 77 -24.8 -12.6
07:10 1023 30.21 852 25.16 -21.5 -6.7 78 -24.3 -11.8
07:15 1023 30.21 852 25.16 -21.5 -6.8 79 -24.3 -11.8
07:20 1023 30.21 852 25.16 -21.8 -7.2 79 -24.5 -12.1
07:25 1023 30.21 852 25.16 -21.8 -7.2 79 -24.5 -12
07:30 1023 30.21 852 25.16 -21.7 -7 77 -24.7 -12.5
07:35 1023 30.21 852 25.16 -21.8 -7.3 77 -24.8 -12.6
07:40 1023 30.21 852 25.16 -21.9 -7.5 78 -24.8 -12.7
07:45 1023 30.21 852 25.16 -22.1 -7.8 76 -25.3 -13.5
07:50 1023 30.21 852 25.16 -22.5 -8.5 77 -25.6 -14
07:55 1023 30.21 852 25.16 -22.6 -8.7 79 -25.4 -13.7
08:00 1023 30.21 852 25.16 -22.4 -8.3 78 -25.3 -13.5
08:05 1023 30.21 852 25.16 -22.3 -8.1 75 -25.6 -14
08:10 1023 30.21 852 25.16 -22.6 -8.6 77 -25.5 -14
08:15 1022 30.18 852 25.16 -22.2 -7.9 75 -25.4 -13.7
08:20 1022 30.18 852 25.16 -22.2 -7.9 75 -25.4 -13.7
08:25 1022 30.18 852 25.16 -22.2 -7.9 76 -25.4 -13.7
08:30 1022 30.18 852 25.16 -22.2 -7.9 76 -25.3 -13.5
08:35 1022 30.18 852 25.16 -22.2 -7.9 77 -25.2 -13.3
08:40 1022 30.18 851 25.13 -22.3 -8.1 77 -25.3 -13.6
08:45 1022 30.18 851 25.13 -22.4 -8.3 76 -25.5 -13.9
08:50 1022 30.18 851 25.13 -22.1 -7.7 74 -25.6 -14
08:55 1022 30.18 851 25.13 -21.9 -7.4 74 -25.4 -13.8
09:00 1022 30.18 851 25.13 -21.7 -7 71 -25.6 -14.1
09:05 1022 30.18 851 25.13 -21.7 -7 71 -25.6 -14.1
09:10 1022 30.18 851 25.13 -21.5 -6.8 71 -25.5 -14
09:15 1022 30.18 851 25.13 -21.1 -5.9 70 -25.2 -13.3
09:20 1022 30.18 851 25.13 -20.7 -5.2 69 -25.1 -13.1
09:25 1022 30.18 851 25.13 -20.3 -4.6 69 -24.6 -12.4
09:30 1022 30.18 851 25.13 -19.7 -3.4 67 -24.4 -11.9
09:35 1022 30.18 851 25.13 -19.2 -2.5 64 -24.3 -11.7
09:40 1022 30.18 851 25.13 -18.5 -1.4 62 -24 -11.3
09:45 1022 30.18 851 25.13 -18.4 -1 63 -23.7 -10.7
09:50 1022 30.18 851 25.13 -17.8 -0.1 60 -23.8 -10.9
09:55 1022 30.18 851 25.13 -17.9 -0.1 60 -23.8 -10.9
10:00 1022 30.18 851 25.13 -18 -0.4 62 -23.5 -10.4
10:05 1022 30.18 851 25.13 -18 -0.4 63 -23.5 -10.3
10:10 1022 30.18 851 25.13 -18.1 -0.6 64 -23.4 -10.2
10:15 1022 30.18 851 25.13 -17.5 0.6 62 -23.1 -9.6
10:20 1022 30.18 851 25.13 -16.9 1.6 58 -23.3 -9.9
10:25 1022 30.18 851 25.13 -17.1 1.1 60 -23.2 -9.8
10:30 1022 30.18 851 25.13 -17.6 0.3 62 -23.2 -9.8
10:35 1022 30.18 851 25.13 -17.7 0.1 62 -23.3 -10
10:40 1022 30.18 851 25.13 -17.6 0.3 62 -23.2 -9.8
10:45 1022 30.18 851 25.13 -17.5 0.6 62 -23.1 -9.5
10:50 1022 30.18 851 25.13 -17.9 -0.2 67 -22.6 -8.7
10:55 1022 30.18 851 25.13 -16.8 1.7 60 -22.8 -9
11:00 1022 30.18 851 25.13 -16.8 1.9 63 -22.1 -7.9
11:05 1022 30.18 851 25.13 -16.5 2.4 61 -22.3 -8.1
11:10 1021 30.15 851 25.13 -16.3 2.7 62 -21.9 -7.5
11:15 1021 30.15 851 25.13 -16.4 2.4 61 -22.4 -8.3
11:20 1021 30.15 851 25.13 -16.2 2.8 58 -22.7 -8.9
11:25 1022 30.18 851 25.13 -15.9 3.3 59 -22.3 -8.1
11:30 1022 30.18 851 25.13 -15 5.1 56 -21.8 -7.3
11:35 1022 30.18 851 25.13 -14.8 5.5 57 -21.6 -6.9
11:40 1022 30.18 851 25.13 -14.5 5.8 54 -21.8 -7.3
11:45 1021 30.15 851 25.13 -14.7 5.5 58 -21.3 -6.4
11:50 1021 30.15 851 25.13 -14.8 5.4 55 -21.9 -7.5
11:55 1021 30.15 851 25.13 -14.4 6.2 53 -21.9 -7.4
12:00 1021 30.15 851 25.13 -14.3 6.3 55 -21.5 -6.7
12:05 1021 30.15 850 25.1 -14.5 5.9 56 -21.6 -6.8
12:10 1021 30.15 850 25.1 -14.5 6 55 -21.7 -7.1
12:15 1021 30.15 850 25.1 -14.3 6.2 53 -21.9 -7.4
12:20 1021 30.15 850 25.1 -15.4 4.3 59 -21.8 -7.2
12:25 1021 30.15 850 25.1 -14.7 5.6 54 -22 -7.6
12:30 1021 30.15 850 25.1 -14.6 5.7 54 -22 -7.5
12:35 1021 30.15 850 25.1 -13.9 7 52 -21.9 -7.3
12:40 1021 30.15 850 25.1 -14 6.8 53 -21.5 -6.8
12:45 1020 30.12 850 25.1 -13.8 7.2 52 -21.6 -6.8
12:50 1020 30.12 850 25.1 -13.3 8 51 -21.4 -6.4
12:55 1020 30.12 849 25.07 -13.1 8.4 51 -21.2 -6.2
13:00 1020 30.12 849 25.07 -13.1 8.4 52 -21 -5.8
13:05 1020 30.12 849 25.07 -13.2 8.2 52 -21.1 -6.1
13:10 1020 30.12 849 25.07 -13.4 7.9 53 -21 -5.7
13:15 1020 30.12 849 25.07 -13.3 8 52 -21.2 -6.2
13:20 1020 30.12 849 25.07 -12.8 9 49 -21.4 -6.5
13:25 1020 30.12 849 25.07 -12.7 9.1 53 -20.5 -4.9
13:30 1020 30.12 849 25.07 -12.8 9.1 51 -20.8 -5.5
13:35 1019 30.09 849 25.07 -12.8 8.9 53 -20.5 -5
13:40 1019 30.09 849 25.07 -12.9 8.7 53 -20.7 -5.2
13:45 1019 30.09 849 25.07 -13 8.6 54 -20.6 -5
13:50 1019 30.09 849 25.07 -13 8.7 54 -20.5 -5
13:55 1019 30.09 848 25.04 -12.7 9.1 52 -20.7 -5.2
14:00 1019 30.09 848 25.04 -12.4 9.6 52 -20.5 -4.8
14:05 1019 30.09 848 25.04 -12.2 10 53 -20 -3.9
14:10 1019 30.09 848 25.04 -12.5 9.5 54 -20.1 -4.2
14:15 1019 30.09 848 25.04 -12.3 9.9 52 -20.3 -4.6
14:20 1019 30.09 848 25.04 -12.2 10.1 52 -20.2 -4.4
14:25 1019 30.09 848 25.04 -12.6 9.3 53 -20.4 -4.8
14:30 1019 30.09 848 25.04 -13 8.6 56 -20.1 -4.1
14:35 1019 30.09 848 25.04 -12.7 9.2 55 -20.1 -4.1
14:40 1019 30.09 848 25.04 -12.7 9.1 52 -20.7 -5.3
14:45 1018 30.06 848 25.04 -13.2 8.3 54 -20.7 -5.2
14:50 1018 30.06 848 25.04 -13.2 8.3 55 -20.5 -4.8
14:55 1018 30.06 848 25.04 -12.7 9.2 55 -20 -4.1
15:00 1018 30.06 847 25.01 -13.3 8 56 -20.4 -4.7
15:05 1018 30.06 847 25.01 -13.6 7.6 57 -20.3 -4.6
15:10 1018 30.06 847 25.01 -12.6 9.4 54 -20.1 -4.1
15:15 1018 30.06 847 25.01 -12.1 10.1 50 -20.6 -5
15:20 1018 30.06 847 25.01 -12.2 10 51 -20.3 -4.6
15:25 1018 30.06 847 25.01 -12 10.3 52 -20 -4.1
15:30 1018 30.06 847 25.01 -11.8 10.8 52 -19.7 -3.5
15:35 1018 30.06 847 25.01 -12.2 10.1 54 -19.8 -3.6
15:40 1018 30.06 847 25.01 -13 8.7 57 -19.9 -3.8
15:45 1017 30.03 847 25.01 -12.5 9.4 55 -19.9 -3.8
15:50 1017 30.03 847 25.01 -12.9 8.7 55 -20.1 -4.2
15:55 1017 30.03 846 24.98 -12.9 8.8 55 -20.2 -4.3
16:00 1017 30.03 846 24.98 -12.6 9.3 53 -20.2 -4.4
16:05 1017 30.03 846 24.98 -11.7 11 50 -20.2 -4.3
16:10 1017 30.03 846 24.98 -11.6 11.2 51 -19.8 -3.7
16:15 1017 30.03 846 24.98 -11.2 11.9 48 -20.1 -4.1
16:20 1017 30.03 846 24.98 -11.2 11.9 49 -19.8 -3.7
16:25 1017 30.03 846 24.98 -11.5 11.3 51 -19.7 -3.4
16:30 1017 30.03 846 24.98 -11.6 11.2 51 -19.7 -3.5
16:35 1017 30.03 846 24.98 -11.7 11 52 -19.7 -3.5
16:40 1017 30.03 846 24.98 -12 10.4 53 -19.8 -3.6
16:45 1017 30.03 846 24.98 -12.4 9.7 54 -19.9 -3.8
16:50 1017 30.03 846 24.98 -13 8.7 58 -19.7 -3.5
16:55 1017 30.03 846 24.98 -13.4 8 58 -20 -4.1
17:00 1017 30.03 846 24.98 -13.7 7.4 59 -20.1 -4.1
17:05 1017 30.03 846 24.98 -13.7 7.3 59 -20.1 -4.2
17:10 1017 30.03 846 24.98 -13.8 7.3 58 -20.3 -4.6
17:15 1017 30.03 846 24.98 -13.9 7.1 59 -20.2 -4.3
17:20 1017 30.03 846 24.98 -13.9 7 61 -19.9 -3.7
17:25 1017 30.03 846 24.98 -14 6.9 61 -19.9 -3.8
17:30 1017 30.03 846 24.98 -14.3 6.3 63 -19.9 -3.8
17:35 1017 30.03 846 24.98 -14.8 5.4 64 -20.2 -4.4
17:40 1017 30.03 846 24.98 -15.6 3.9 67 -20.4 -4.6
17:45 1017 30.03 846 24.98 -15.6 3.8 67 -20.4 -4.7
17:50 1017 30.03 846 24.98 -15.6 3.9 67 -20.4 -4.7
17:55 1017 30.03 846 24.98 -15.5 4.1 66 -20.5 -4.8
18:00 1017 30.03 846 24.98 -15.7 3.7 68 -20.4 -4.7
18:05 1017 30.03 846 24.98 -16 3.2 68 -20.5 -5
18:10 1017 30.03 846 24.98 -16.1 3 69 -20.5 -4.9
18:15 1017 30.03 846 24.98 -16.1 3.1 71 -20.2 -4.4
18:20 1017 30.03 846 24.98 -16.1 3.1 70 -20.3 -4.5
18:25 1017 30.03 846 24.98 -16.1 3 70 -20.4 -4.8
18:30 1017 30.03 846 24.98 -16.1 3.1 69 -20.5 -4.9
18:35 1017 30.03 846 24.98 -16.1 3 69 -20.6 -5
18:40 1017 30.03 846 24.98 -16.2 2.9 69 -20.5 -5
18:45 1016 30 846 24.98 -16.4 2.5 71 -20.5 -4.8
18:50 1016 30 846 24.98 -16.4 2.4 72 -20.4 -4.7
18:55 1016 30 846 24.98 -16.3 2.7 71 -20.4 -4.8
19:00 1016 30 846 24.98 -16.2 2.8 71 -20.4 -4.7
19:05 1016 30 846 24.98 -16.2 2.8 71 -20.4 -4.7
19:10 1016 30 846 24.98 -16.3 2.6 71 -20.4 -4.7
19:15 1016 30 846 24.98 -16.5 2.4 72 -20.4 -4.8
19:20 1016 30 846 24.98 -16.4 2.5 72 -20.4 -4.7
19:25 1016 30 845 24.95 -16.4 2.5 71 -20.4 -4.8
19:30 1016 30 846 24.98 -16.4 2.4 72 -20.3 -4.6
19:35 1016 30 845 24.95 -16.4 2.6 72 -20.3 -4.6
19:40 1016 30 845 24.95 -16.3 2.6 72 -20.2 -4.4
19:45 1016 30 845 24.95 -16.3 2.7 73 -20.1 -4.2
19:50 1016 30 845 24.95 -16.2 2.9 72 -20.1 -4.3
19:55 1016 30 845 24.95 -16.1 3 72 -20 -4.1
20:00 1016 30 845 24.95 -16 3.2 71 -20.2 -4.3
20:05 1016 30 845 24.95 -15.9 3.4 71 -20 -4.1
20:10 1016 30 845 24.95 -15.7 3.8 70 -19.9 -3.9
20:15 1016 30 845 24.95 -15.8 3.6 71 -19.9 -3.9
20:20 1016 30 845 24.95 -15.5 4 71 -19.7 -3.4
20:25 1016 30 845 24.95 -15.4 4.4 70 -19.6 -3.3
20:30 1016 30 845 24.95 -15.3 4.5 70 -19.5 -3.1
20:35 1016 30 845 24.95 -15.4 4.2 72 -19.4 -2.9
20:40 1016 30 845 24.95 -15.4 4.3 71 -19.5 -3.1
20:45 1016 30 845 24.95 -15.2 4.6 71 -19.3 -2.8
20:50 1016 30 845 24.95 -15 4.9 70 -19.3 -2.7
20:55 1016 30 845 24.95 -15.8 3.7 73 -19.6 -3.2
21:00 1016 30 845 24.95 -16 3.2 74 -19.7 -3.5
21:05 1016 30 845 24.95 -15.8 3.5 71 -20 -3.9
21:10 1016 30 845 24.95 -15.8 3.6 69 -20.2 -4.4
21:15 1016 30 845 24.95 -16 3.1 72 -20 -3.9
21:20 1016 30 845 24.95 -16.2 2.9 73 -20 -4
21:25 1016 30 845 24.95 -15.9 3.5 72 -19.9 -3.8
21:30 1016 30 845 24.95 -15.7 3.8 71 -19.8 -3.6
21:35 1016 30 845 24.95 -15.6 3.9 70 -19.9 -3.8
21:40 1016 30 845 24.95 -15.7 3.8 70 -19.9 -3.8
21:45 1016 30 845 24.95 -15.7 3.7 71 -19.9 -3.8
21:50 1016 30 845 24.95 -15.7 3.7 72 -19.7 -3.5
21:55 1016 30 845 24.95 -15.6 4 71 -19.7 -3.5
22:00 1016 30 845 24.95 -15.6 4 72 -19.6 -3.2
22:05 1016 30 845 24.95 -15.6 4 72 -19.5 -3.1
22:10 1016 30 845 24.95 -15.8 3.6 73 -19.6 -3.2
22:15 1016 30 845 24.95 -15.8 3.5 74 -19.4 -3
22:20 1016 30 845 24.95 -15.8 3.7 74 -19.5 -3
22:25 1016 30 845 24.95 -15.7 3.8 73 -19.5 -3
22:30 1016 30 845 24.95 -15.9 3.5 74 -19.4 -3
22:35 1016 30 845 24.95 -16 3.2 75 -19.4 -3
22:40 1016 30 845 24.95 -16 3.2 75 -19.4 -2.9
22:45 1015 29.97 845 24.95 -15.9 3.3 75 -19.3 -2.8
22:50 1015 29.97 845 24.95 -15.9 3.4 76 -19.3 -2.7
22:55 1015 29.97 845 24.95 -15.9 3.4 76 -19.2 -2.5
23:00 1015 29.97 844 24.92 -15.8 3.5 76 -19.2 -2.5
23:05 1015 29.97 844 24.92 -15.8 3.5 76 -19.1 -2.4
23:10 1015 29.97 845 24.95 -15.7 3.7 76 -19 -2.2
23:15 1015 29.97 845 24.95 -15.7 3.8 77 -18.8 -1.9
23:20 1015 29.97 844 24.92 -15.6 4 77 -18.8 -1.9
23:25 1015 29.97 845 24.95 -15.4 4.3 76 -18.7 -1.6
23:30 1015 29.97 845 24.95 -15.2 4.6 74 -18.8 -1.9
23:35 1015 29.97 845 24.95 -15.1 4.8 73 -18.9 -1.9
23:40 1016 30 845 24.95 -15 5 73 -18.8 -1.8
23:45 1016 30 845 24.95 -14.8 5.4 73 -18.6 -1.4
23:50 1016 30 845 24.95 -14.7 5.6 74 -18.4 -1.1
23:55 1016 30 845 24.95 -14.5 5.9 73 -18.3 -1
24:00 1016 30 845 24.95 -14.5 6 72 -18.4 -1.2